Date,TemperatureHighF,TemperatureAvgF,TemperatureLowF,DewpointHighF,DewpointAvgF,DewpointLowF,HumidityHigh,HumidityAvg,HumidityLow,PressureMaxIn,PressureMinIn,WindSpeedMaxMPH,WindSpeedAvgMPH,GustSpeedMaxMPH,PrecipitationSumIn
2013-1-1,59.4,49.3,41.8,37.5,30.1,17.3,75,50,26,30.13,29.98,4,0,11,0.00
2013-1-2,65.9,54.8,45.5,31.0,22.5,13.4,53,30,20,30.02,29.91,19,1,27,0.00
2013-1-3,70.6,55.3,46.3,44.7,25.2,14.7,56,33,13,30.06,29.92,9,1,15,0.00
2013-1-4,65.6,52.7,44.5,26.3,19.8,9.7,41,28,17,30.16,30.05,4,0,7,0.00
2013-1-5,64.8,51.4,43.1,38.7,28.0,19.4,66,42,21,30.17,30.07,4,0,6,0.00
2013-1-6,55.4,47.9,43.3,46.2,41.1,32.0,93,78,60,30.09,29.90,9,0,10,0.07
2013-1-7,65.6,52.7,42.8,41.3,32.2,22.6,90,49,20,29.97,29.85,14,1,17,0.01
2013-1-8,69.9,56.6,46.3,46.4,36.8,24.1,63,48,33,30.00,29.90,8,0,8,0.00
2013-1-9,70.5,57.1,47.5,48.3,40.3,31.3,93,57,25,30.01,29.89,5,0,7,0.00
2013-1-10,53.9,48.4,39.9,47.7,39.9,25.8,94,74,50,29.98,29.79,7,1,13,0.03
2013-1-11,53.9,41.7,33.4,31.5,26.8,23.3,74,57,31,30.08,29.94,10,1,12,0.00
2013-1-12,55.4,42.9,34.8,30.5,24.8,19.1,66,50,27,30.05,29.96,5,0,9,0.00
2013-1-13,54.8,43.7,36.1,28.6,23.1,16.7,63,45,25,30.05,29.95,7,1,17,0.00
2013-1-14,53.1,45.7,39.4,17.3,3.6,-4.3,35,18,10,30.21,29.99,17,3,26,0.00
2013-1-15,59.2,46.5,37.4,27.6,17.8,8.4,52,33,21,30.34,30.20,5,0,8,0.00
2013-1-16,68.6,56.7,43.3,37.1,26.9,16.7,50,34,15,30.24,29.99,13,1,17,0.00
2013-1-17,77.7,67.2,57.6,22.0,16.1,11.7,21,14,8,30.03,29.91,13,2,22,0.00
2013-1-18,79.8,66.4,56.5,30.1,21.8,15.5,26,18,11,30.00,29.92,9,1,14,0.00
2013-1-19,77.8,66.1,56.6,29.3,19.2,7.4,28,17,10,30.05,29.95,5,1,14,0.00
2013-1-20,80.9,66.2,56.8,28.1,14.4,6.4,28,14,7,30.01,29.87,8,1,12,0.00
2013-1-21,81.1,69.3,58.1,28.6,10.8,0.5,23,11,6,29.95,29.87,11,1,16,0.00
2013-1-22,80.0,64.9,54.7,31.2,18.3,4.9,28,17,8,29.97,29.89,5,0,8,0.00
2013-1-23,77.3,66.4,58.6,41.7,32.4,21.4,48,29,19,30.02,29.89,5,0,8,0.00
2013-1-24,67.2,58.6,54.2,56.7,51.9,39.0,90,79,50,30.06,29.97,4,0,7,0.28
2013-1-25,63.3,59.8,57.3,60.0,56.5,53.3,95,89,72,30.00,29.81,5,0,10,0.39
2013-1-26,63.8,57.3,53.9,59.9,55.9,53.1,97,95,85,29.89,29.77,7,0,8,0.22
2013-1-27,56.3,51.0,45.6,53.1,48.2,42.9,97,90,70,29.93,29.85,5,0,9,0.14
2013-1-28,58.0,46.8,38.6,44.7,37.3,31.1,92,71,37,30.07,29.89,5,1,10,0.01
2013-1-29,58.8,47.4,39.6,43.3,37.0,31.5,82,68,48,30.13,30.05,5,0,8,0.00
2013-1-30,67.5,53.7,43.1,47.4,41.5,38.9,85,66,38,30.23,30.10,5,0,7,0.00
2013-1-31,78.3,61.3,49.2,47.6,40.4,33.3,70,49,20,30.13,29.97,6,0,9,0.00
2013-2-1,74.7,62.3,53.1,46.3,40.7,34.4,58,46,29,30.05,29.98,5,0,7,0.00
2013-2-2,74.2,64.1,57.1,50.1,43.9,38.3,64,48,32,30.07,29.98,4,0,4,0.00
2013-2-3,71.9,61.6,52.2,49.1,46.2,43.5,73,58,42,30.01,29.89,6,1,8,0.00
2013-2-4,71.2,57.3,47.2,53.7,46.9,41.0,95,70,47,29.97,29.86,5,0,7,0.00
2013-2-5,54.7,48.4,41.7,49.9,46.2,40.5,96,92,83,29.99,29.87,3,0,5,0.01
2013-2-6,62.9,52.5,46.3,49.7,46.5,42.8,93,81,57,30.00,29.90,5,0,9,0.00
2013-2-7,62.3,51.1,44.2,51.3,45.6,41.5,92,82,64,30.02,29.89,6,0,9,0.00
2013-2-8,49.0,44.6,40.2,45.7,41.0,37.7,92,87,73,29.90,29.79,8,1,15,0.49
2013-2-9,55.4,43.7,35.9,41.6,37.1,33.4,93,79,50,30.01,29.82,7,1,10,0.00
2013-2-10,52.9,44.3,38.1,43.7,38.3,32.5,89,80,61,30.01,29.92,6,0,8,0.02
2013-2-11,59.8,47.2,38.9,42.4,32.6,16.7,89,63,19,30.13,29.95,9,1,14,0.01
2013-2-12,63.6,49.0,38.8,42.4,32.0,23.1,70,53,31,30.23,30.13,6,0,8,0.00
2013-2-13,67.8,53.0,41.9,45.4,35.5,29.4,66,52,32,30.15,30.02,6,0,7,0.00
2013-2-14,74.9,59.2,46.3,47.7,37.7,25.8,69,47,22,30.10,29.94,6,1,14,0.00
2013-2-15,79.3,68.7,60.2,28.9,22.0,9.1,30,18,9,30.05,29.99,12,2,17,0.00
2013-2-16,80.6,66.1,55.6,27.9,20.4,9.1,28,18,10,30.02,29.85,5,1,11,0.00
2013-2-17,67.8,54.4,45.0,49.3,36.1,19.2,89,54,23,29.91,29.80,7,1,11,0.00
2013-2-18,64.0,51.5,45.5,48.0,44.3,41.4,89,77,53,29.95,29.85,6,1,10,0.00
2013-2-19,49.2,47.0,42.9,46.3,42.2,37.9,94,84,68,29.88,29.60,6,0,11,0.49
2013-2-20,56.5,46.1,36.2,42.0,36.8,31.0,94,72,41,29.90,29.60,7,1,12,0.00
2013-2-21,57.6,47.6,42.0,45.3,40.7,35.6,87,77,50,29.98,29.86,7,0,8,0.04
2013-2-22,64.7,50.6,39.7,42.8,34.3,29.8,75,56,29,30.09,29.98,6,1,10,0.00
2013-2-23,65.5,51.1,43.1,45.8,36.4,26.5,86,59,32,30.06,29.82,7,1,11,0.00
2013-2-24,64.9,54.7,43.8,43.3,15.4,-1.5,90,29,8,30.09,29.85,13,2,21,0.00
2013-2-25,68.4,53.7,44.1,30.1,20.6,10.3,51,29,12,30.10,29.96,6,1,9,0.00
2013-2-26,69.4,54.7,40.1,46.1,33.1,17.6,63,45,22,30.00,29.87,5,0,9,0.00
2013-2-27,73.1,63.3,53.3,23.6,14.7,5.4,25,16,9,30.14,30.00,13,1,15,0.00
2013-2-28,79.1,64.1,52.9,29.3,19.6,6.8,30,19,10,30.18,30.11,8,1,10,0.00
2013-3-1,85.3,70.4,56.7,30.6,22.8,16.0,29,18,8,30.17,30.03,12,2,23,0.00
2013-3-2,83.9,68.9,58.5,36.5,28.1,23.3,33,23,11,30.08,29.95,6,1,9,0.00
2013-3-3,71.1,59.7,47.9,50.5,38.5,25.8,90,49,25,29.97,29.86,7,1,9,0.00
2013-3-4,68.3,55.7,47.4,52.0,47.9,42.6,91,76,55,29.99,29.90,8,1,11,0.00
2013-3-5,63.4,52.0,48.0,52.8,48.4,45.5,95,88,66,30.01,29.92,7,1,11,0.02
2013-3-6,64.4,53.1,46.5,47.7,45.0,42.1,94,76,50,30.04,29.90,5,1,10,0.01
2013-3-7,54.9,50.6,47.0,48.8,45.7,39.9,94,83,70,29.90,29.75,4,0,8,0.15
2013-3-8,52.4,47.5,44.6,45.8,43.0,40.3,94,85,65,29.94,29.66,10,1,14,0.80
2013-3-9,57.8,50.3,45.9,47.2,44.9,41.4,94,82,66,30.11,29.93,6,0,11,0.01
2013-3-10,71.2,56.4,43.7,48.8,40.5,28.5,85,59,21,30.15,30.04,7,1,10,0.00
2013-3-11,77.4,61.0,49.7,46.4,37.0,28.8,63,42,21,30.06,29.93,6,1,9,0.00
2013-3-12,81.4,65.7,52.5,52.3,40.9,33.8,62,42,23,29.96,29.88,5,0,9,0.00
2013-3-13,87.3,70.5,59.9,53.6,41.9,33.6,58,37,17,29.97,29.89,5,0,9,0.00
2013-3-14,88.5,71.1,57.9,54.5,44.8,36.8,71,41,19,29.95,29.87,6,0,7,0.00
2013-3-15,80.5,63.8,49.7,55.5,47.7,38.2,89,58,31,29.90,29.81,7,1,10,0.00
2013-3-16,70.8,53.9,43.8,53.8,48.0,42.5,96,82,52,29.85,29.77,6,1,10,0.00
2013-3-17,69.0,55.2,48.1,54.6,49.5,46.7,96,83,54,29.89,29.82,6,1,10,0.00
2013-3-18,64.8,55.2,50.3,52.7,49.3,47.0,93,81,62,29.98,29.87,8,0,11,0.00
2013-3-19,71.9,56.4,48.3,54.3,49.9,45.1,93,80,50,30.01,29.93,6,1,9,0.00
2013-3-20,71.2,59.6,50.7,54.2,50.1,46.2,91,72,52,29.99,29.85,5,0,7,0.00
2013-3-21,70.6,58.1,49.7,53.6,49.4,45.0,89,74,50,29.85,29.69,6,1,11,0.00
2013-3-22,70.7,57.6,49.4,55.3,50.0,44.6,93,77,55,29.80,29.69,6,1,10,0.00
2013-3-23,71.8,56.0,45.2,54.6,47.9,40.5,89,76,49,29.91,29.79,5,1,9,0.00
2013-3-24,76.3,59.2,44.4,53.5,47.3,39.9,93,67,39,29.89,29.77,7,1,10,0.00
2013-3-25,77.5,61.2,50.1,54.0,48.2,42.3,88,64,36,29.85,29.77,4,1,8,0.00
2013-3-26,70.6,56.6,45.5,53.2,48.8,43.4,95,77,48,29.86,29.79,8,1,9,0.00
2013-3-27,66.8,56.0,49.2,53.5,49.6,46.5,92,80,59,29.93,29.81,8,1,9,0.00
2013-3-28,75.8,58.9,45.3,55.3,50.2,44.0,96,76,44,29.96,29.89,7,1,11,0.00
2013-3-29,75.6,58.4,47.7,58.1,52.3,46.3,96,82,50,29.99,29.91,7,1,8,0.00
2013-3-30,75.2,60.7,51.5,56.7,52.6,44.6,94,76,49,30.00,29.93,8,1,11,0.00
2013-3-31,68.9,57.1,48.7,55.5,50.5,43.1,91,79,58,30.01,29.94,8,1,13,0.00
2013-4-1,67.2,57.7,52.1,52.2,50.3,47.8,91,78,53,30.05,29.96,7,1,11,0.00
2013-4-2,71.2,57.9,49.2,54.1,50.9,46.7,93,79,54,29.98,29.87,6,1,11,0.00
2013-4-3,78.2,59.8,47.4,57.8,51.8,45.8,96,77,42,29.97,29.87,8,1,8,0.00
2013-4-4,76.7,61.9,50.7,56.1,51.7,47.9,94,73,38,29.99,29.89,6,1,8,0.00
2013-4-5,68.6,58.0,52.5,56.3,52.7,49.6,94,83,64,29.97,29.88,8,1,10,0.00
2013-4-6,68.8,58.8,52.4,56.0,52.3,48.7,93,79,62,29.96,29.85,7,1,10,0.00
2013-4-7,70.2,57.4,48.8,55.7,51.2,46.2,93,81,58,29.86,29.70,9,1,10,0.00
2013-4-8,62.0,53.8,48.3,51.9,45.7,39.2,94,75,47,29.71,29.57,9,1,14,0.02
2013-4-9,70.5,56.9,45.1,44.9,36.8,27.7,80,51,22,29.90,29.70,8,1,15,0.00
2013-4-10,79.0,65.2,50.4,47.8,29.4,17.6,52,28,11,29.96,29.88,14,2,17,0.00
2013-4-11,73.9,60.2,52.6,53.0,40.9,25.0,88,52,22,29.88,29.67,10,1,12,0.00
2013-4-12,75.8,59.7,51.2,55.8,51.3,47.2,92,75,48,29.78,29.66,7,1,11,0.00
2013-4-13,60.7,55.0,51.4,54.8,51.6,48.7,94,88,80,29.79,29.73,5,1,7,0.00
2013-4-14,58.9,53.5,51.0,51.3,49.2,47.2,94,86,73,29.77,29.71,5,1,10,0.03
2013-4-15,60.3,54.2,50.8,52.5,49.9,46.8,94,86,72,29.80,29.73,10,1,11,0.00
2013-4-16,61.1,51.6,45.1,47.1,42.5,36.7,89,72,48,29.88,29.75,7,1,10,0.00
2013-4-17,71.3,56.6,43.7,37.7,28.0,15.7,75,38,12,30.01,29.88,11,1,14,0.00
2013-4-18,78.5,65.2,53.0,27.8,18.8,7.8,34,18,7,30.06,29.98,15,2,23,0.00
2013-4-19,84.6,68.0,52.9,27.3,20.3,11.6,36,17,8,30.03,29.86,7,1,11,0.00
2013-4-20,85.0,67.1,51.9,49.3,37.2,21.9,54,35,20,29.88,29.76,10,1,11,0.00
2013-4-21,80.8,65.6,53.4,53.1,45.6,35.0,93,51,28,29.88,29.80,6,1,10,0.00
2013-4-22,75.1,58.5,49.0,55.3,50.9,47.1,95,78,44,29.88,29.79,9,1,10,0.00
2013-4-23,75.8,59.5,51.6,55.3,50.6,47.3,89,74,48,29.86,29.74,6,1,9,0.00
2013-4-24,58.3,55.1,51.4,53.8,51.4,47.4,94,87,81,29.87,29.78,4,0,7,0.08
2013-4-25,70.8,58.9,52.3,53.1,50.3,47.2,92,75,50,30.00,29.85,5,0,7,0.00
2013-4-26,77.6,62.5,49.6,54.0,49.9,45.6,87,66,40,30.03,29.97,6,1,9,0.00
2013-4-27,80.1,64.4,52.4,59.6,52.8,44.6,91,68,43,30.03,29.87,6,1,8,0.00
2013-4-28,82.9,61.9,50.3,60.1,54.0,48.9,96,78,43,29.90,29.74,5,1,9,0.01
2013-4-29,75.2,60.3,51.2,59.2,53.7,49.8,96,81,55,29.78,29.67,6,1,10,0.02
2013-4-30,67.8,60.8,53.9,56.0,53.3,50.7,89,77,64,29.78,29.70,9,2,13,0.00
2013-5-1,78.1,63.3,54.6,58.4,54.5,50.3,91,75,49,29.97,29.78,8,1,14,0.00
2013-5-2,91.5,72.6,52.8,53.1,21.4,-22.2,95,38,1,29.99,29.86,11,2,17,0.00
2013-5-3,91.0,77.9,62.1,50.2,18.4,-5.2,56,14,3,29.90,29.66,9,1,13,0.00
2013-5-4,72.8,62.0,51.1,55.6,46.9,22.1,87,61,21,29.74,29.62,9,2,15,0.00
2013-5-5,63.4,58.2,55.7,53.8,51.1,48.4,86,77,63,29.84,29.71,8,1,17,0.00
2013-5-6,62.3,57.3,54.2,56.5,54.0,51.2,95,89,76,29.91,29.79,9,1,11,0.38
2013-5-7,67.1,58.2,53.5,53.0,50.1,47.3,93,75,53,29.97,29.87,10,1,14,0.10
2013-5-8,65.0,58.6,50.6,54.5,50.1,45.8,86,74,60,29.98,29.94,7,1,9,0.00
2013-5-9,70.3,59.7,50.0,56.7,51.5,45.5,90,75,56,29.98,29.92,7,1,12,0.00
2013-5-10,80.3,65.1,53.2,61.4,55.7,50.0,92,74,49,29.96,29.89,7,1,9,0.00
2013-5-11,89.3,70.3,54.6,64.0,57.9,51.9,93,69,36,29.95,29.86,5,1,10,0.00
2013-5-12,95.3,79.8,63.4,60.8,49.7,39.9,84,37,19,29.92,29.78,7,1,10,0.00
2013-5-13,97.1,83.6,71.6,55.0,46.5,38.1,42,28,17,29.83,29.74,8,1,11,0.00
2013-5-14,84.3,70.3,56.4,58.9,52.0,37.6,90,55,28,29.87,29.75,8,1,11,0.00
2013-5-15,74.5,62.6,55.2,57.4,53.9,50.6,89,75,53,29.91,29.83,10,1,11,0.00
2013-5-16,72.4,62.3,55.1,58.6,54.3,50.4,88,76,57,29.86,29.77,8,1,13,0.00
2013-5-17,70.2,62.8,57.9,58.0,54.9,52.5,87,76,64,29.89,29.78,9,1,13,0.00
2013-5-18,72.0,62.7,56.2,58.0,55.2,51.6,90,77,59,29.91,29.85,7,1,13,0.00
2013-5-19,75.0,62.9,50.9,59.2,54.6,49.2,95,76,55,29.87,29.77,7,1,12,0.00
2013-5-20,85.0,66.0,53.7,61.7,56.4,50.4,95,74,42,29.83,29.76,7,1,10,0.00
2013-5-21,81.6,65.0,55.0,62.0,57.0,53.4,95,78,48,29.82,29.72,9,1,11,0.01
2013-5-22,72.4,63.4,57.4,58.2,54.9,52.3,88,75,59,29.73,29.66,9,1,13,0.00
2013-5-23,70.5,61.7,55.1,54.9,52.6,49.2,89,73,57,29.82,29.69,7,1,11,0.00
2013-5-24,70.1,60.8,52.1,55.6,51.7,47.2,88,73,58,29.88,29.80,8,1,12,0.00
2013-5-25,73.3,59.3,47.5,56.1,50.2,42.6,88,73,52,29.90,29.85,8,1,12,0.00
2013-5-26,70.1,60.7,52.9,56.0,52.5,48.5,89,75,59,29.93,29.87,9,1,13,0.00
2013-5-27,73.9,61.6,50.1,58.6,53.7,46.6,91,76,53,29.89,29.75,9,1,12,0.00
2013-5-28,73.9,63.8,57.1,59.2,55.6,52.3,89,76,57,29.78,29.64,8,1,13,0.00
2013-5-29,80.3,65.2,53.3,62.6,56.7,50.9,95,76,49,29.69,29.61,9,1,11,0.00
2013-5-30,77.8,64.8,55.2,61.8,57.3,52.6,94,78,55,29.77,29.64,8,1,10,0.00
2013-5-31,81.1,66.0,57.1,62.4,58.1,54.3,92,77,52,29.78,29.69,6,1,11,0.00
2013-6-1,86.2,67.1,57.0,65.4,59.6,55.4,95,79,49,29.73,29.64,5,1,10,0.00
2013-6-2,71.5,62.3,58.4,61.4,57.6,55.7,94,85,67,29.70,29.65,9,1,10,0.00
2013-6-3,73.8,64.0,57.5,60.1,56.5,54.5,91,77,60,29.77,29.68,9,1,12,0.00
2013-6-4,76.2,64.1,57.4,60.1,56.8,54.6,92,78,57,29.85,29.76,6,1,10,0.00
2013-6-5,78.3,65.5,57.1,60.2,56.7,52.3,86,75,51,29.87,29.78,7,1,10,0.00
2013-6-6,78.4,64.4,54.8,61.9,56.6,51.2,93,77,55,29.82,29.75,8,1,11,0.00
2013-6-7,76.5,63.8,57.5,61.5,57.2,54.6,91,80,58,29.79,29.67,7,1,10,0.00
2013-6-8,73.3,63.7,58.3,61.1,57.3,55.3,90,80,63,29.78,29.66,10,1,11,0.00
2013-6-9,75.3,64.1,58.0,61.8,57.2,53.6,91,79,61,29.80,29.74,7,1,12,0.00
2013-6-10,77.1,64.7,54.6,59.3,55.2,50.7,90,73,50,29.83,29.76,7,1,13,0.00
2013-6-11,85.0,67.9,54.9,62.8,56.6,48.1,92,69,44,29.82,29.75,6,1,9,0.00
2013-6-12,76.7,63.7,58.7,62.2,58.3,56.4,94,83,58,29.90,29.79,6,1,11,0.00
2013-6-13,80.3,67.2,58.7,62.3,58.6,55.1,91,75,53,29.88,29.77,7,1,9,0.00
2013-6-14,75.2,63.3,55.7,61.1,56.1,52.7,91,79,57,29.80,29.72,8,1,12,0.00
2013-6-15,75.0,62.9,53.7,57.9,54.7,51.4,93,76,54,29.86,29.77,7,1,13,0.00
2013-6-16,80.0,66.3,52.7,59.9,55.1,47.0,87,69,44,29.91,29.82,8,1,10,0.00
2013-6-17,82.1,66.2,51.7,62.7,56.5,49.0,95,73,46,29.86,29.77,10,1,10,0.00
2013-6-18,78.5,65.5,53.8,61.5,56.8,50.1,92,75,53,29.79,29.72,8,1,13,0.00
2013-6-19,80.3,67.8,56.8,61.9,56.1,50.9,91,68,39,29.75,29.68,9,1,12,0.00
2013-6-20,81.8,68.0,55.8,59.5,53.0,44.7,88,61,36,29.74,29.67,8,1,12,0.00
2013-6-21,80.1,67.3,55.6,59.5,53.7,46.4,85,63,41,29.77,29.70,9,1,15,0.00
2013-6-22,81.0,65.7,54.7,60.9,56.1,49.5,92,73,47,29.78,29.69,7,1,11,0.00
2013-6-23,75.5,63.5,57.4,60.1,56.4,53.6,91,79,56,29.76,29.68,7,1,12,0.00
2013-6-24,75.7,64.0,58.8,61.3,57.2,53.8,92,79,59,29.82,29.72,6,1,9,0.00
2013-6-25,79.4,68.6,57.3,64.1,59.6,53.5,91,74,55,29.87,29.78,6,1,12,0.00
2013-6-26,89.8,73.6,58.7,66.6,61.4,56.4,94,69,40,29.85,29.77,8,1,10,0.00
2013-6-27,93.0,76.5,61.3,66.0,61.8,57.5,91,64,36,29.89,29.83,10,1,10,0.00
2013-6-28,95.4,80.8,67.8,64.7,60.2,53.4,78,52,32,29.86,29.74,6,1,10,0.00
2013-6-29,96.1,82.9,69.6,67.4,62.0,54.2,68,51,33,29.74,29.60,7,1,9,0.00
2013-6-30,90.0,78.4,69.0,66.9,60.0,48.0,79,55,37,29.68,29.57,6,1,10,0.00
2013-7-1,93.6,76.7,67.5,66.4,60.2,54.8,80,59,30,29.77,29.67,7,1,10,0.00
2013-7-2,83.8,73.3,65.2,66.8,60.8,51.3,83,66,54,29.86,29.74,8,1,9,0.00
2013-7-3,88.8,73.2,60.9,67.4,62.9,56.2,90,72,46,29.80,29.68,7,1,11,0.00
2013-7-4,88.4,70.4,58.7,65.3,61.0,57.1,96,75,44,29.71,29.63,10,1,10,0.00
2013-7-5,83.3,69.5,60.3,64.9,61.2,56.6,90,76,52,29.72,29.65,7,1,10,0.00
2013-7-6,81.0,68.3,61.7,66.1,61.6,57.5,90,80,59,29.70,29.63,7,1,11,0.00
2013-7-7,88.5,73.1,62.5,67.2,62.6,58.7,90,72,46,29.73,29.64,5,1,8,0.00
2013-7-8,93.3,73.3,59.1,67.3,60.5,52.2,92,68,34,29.79,29.72,5,1,9,0.00
2013-7-9,86.9,75.4,65.3,66.1,60.5,50.1,78,61,46,29.87,29.76,7,1,11,0.00
2013-7-10,81.7,71.8,65.0,65.5,62.2,58.6,88,73,48,29.85,29.77,10,1,11,0.00
2013-7-11,77.3,69.3,65.2,67.1,63.4,60.2,89,82,70,29.84,29.77,6,1,8,0.00
2013-7-12,84.8,71.8,63.4,67.9,63.9,60.6,94,78,54,29.80,29.72,6,1,13,0.00
2013-7-13,87.5,72.1,59.1,66.2,61.8,57.4,95,73,44,29.82,29.73,7,1,12,0.00
2013-7-14,89.0,71.8,61.1,66.6,61.7,58.4,94,73,43,29.80,29.71,7,1,11,0.00
2013-7-15,89.1,73.1,61.6,65.6,58.9,52.8,91,65,31,29.74,29.67,8,1,10,0.00
2013-7-16,87.8,72.9,57.8,61.9,54.0,43.8,82,55,26,29.85,29.71,6,1,9,0.00
2013-7-17,89.7,74.1,59.3,60.4,49.8,37.9,79,45,18,29.88,29.82,8,1,10,0.00
2013-7-18,87.1,71.7,58.6,64.0,57.0,45.7,82,62,41,29.85,29.73,5,1,10,0.00
2013-7-19,83.2,67.7,57.0,65.6,59.8,53.5,95,77,54,29.77,29.70,6,1,9,0.00
2013-7-20,76.3,66.0,61.0,64.3,60.5,58.0,91,83,65,29.76,29.67,4,0,8,0.00
2013-7-21,74.6,65.8,61.1,65.3,61.2,58.8,93,86,72,29.80,29.67,4,0,7,0.00
2013-7-22,83.5,71.4,61.3,66.7,62.5,59.0,93,75,55,29.85,29.79,7,1,11,0.00
2013-7-23,85.2,76.0,64.3,66.7,63.2,59.6,91,66,48,29.89,29.80,6,1,9,0.00
2013-7-24,85.5,72.2,61.1,66.1,61.6,57.3,90,71,50,29.84,29.76,6,1,9,0.00
2013-7-25,85.8,70.1,58.5,65.3,61.0,56.5,94,75,49,29.88,29.79,6,1,9,0.00
2013-7-26,87.0,70.6,61.4,68.1,62.8,59.4,95,78,51,29.95,29.85,5,0,8,0.03
2013-7-27,83.4,69.4,60.9,66.6,61.8,58.7,94,78,55,29.88,29.75,8,1,12,0.00
2013-7-28,78.6,66.4,59.9,64.0,60.0,56.9,95,81,58,29.80,29.75,8,1,12,0.00
2013-7-29,79.4,67.0,57.8,62.1,57.7,53.2,88,73,53,29.91,29.79,6,1,9,0.00
2013-7-30,81.6,66.3,57.2,62.1,57.4,53.2,92,75,50,29.99,29.90,8,1,9,0.00
2013-7-31,78.0,64.2,55.4,62.6,56.8,51.9,91,78,56,29.98,29.87,6,1,10,0.00
2013-8-1,79.4,67.2,60.3,60.8,57.7,55.0,90,73,52,29.90,29.78,8,1,11,0.00
2013-8-2,79.8,66.6,57.5,62.5,58.0,54.3,91,75,53,29.85,29.78,8,1,10,0.00
2013-8-3,79.6,66.7,58.2,63.0,58.9,54.1,92,77,55,29.87,29.81,7,1,11,0.00
2013-8-4,82.8,68.7,58.9,63.2,59.2,53.8,93,74,49,29.88,29.80,8,1,9,0.00
2013-8-5,85.6,66.9,53.9,61.9,56.7,51.0,95,73,38,29.87,29.80,6,1,8,0.00
2013-8-6,80.0,66.5,54.7,61.9,57.2,50.6,93,74,51,29.91,29.84,8,1,10,0.00
2013-8-7,80.3,66.9,54.3,61.5,56.8,50.8,94,72,48,29.95,29.84,7,1,11,0.00
2013-8-8,83.3,67.2,55.3,61.0,55.6,43.9,87,68,45,29.87,29.78,7,1,10,0.00
2013-8-9,78.5,63.0,51.4,61.1,54.8,45.7,93,76,54,29.85,29.78,7,1,9,0.00
2013-8-10,78.3,64.9,54.4,60.6,56.0,51.8,93,75,52,29.91,29.84,7,1,10,0.00
2013-8-11,83.2,72.1,59.5,62.5,59.3,55.6,91,66,48,29.84,29.77,6,1,9,0.00
2013-8-12,83.1,66.1,55.4,64.3,58.3,53.8,96,78,51,29.85,29.77,6,1,9,0.00
2013-8-13,88.2,67.2,55.4,65.8,59.0,54.0,96,78,45,29.85,29.75,6,1,8,0.01
2013-8-14,87.9,68.3,56.4,66.2,59.9,54.4,96,77,47,29.80,29.71,5,1,9,0.00
2013-8-15,90.3,71.1,58.2,65.6,60.8,55.7,94,73,37,29.82,29.75,6,1,9,0.00
2013-8-16,89.9,75.3,63.4,65.8,59.3,48.0,85,60,26,29.83,29.77,8,1,9,0.00
2013-8-17,92.2,74.4,63.8,62.9,57.6,47.2,84,60,24,29.81,29.68,6,1,8,0.00
2013-8-18,84.3,69.7,57.9,65.7,59.9,53.6,91,73,49,29.78,29.68,7,1,10,0.00
2013-8-19,85.4,69.2,60.7,66.5,61.3,57.4,93,78,51,29.81,29.73,6,1,9,0.00
2013-8-20,88.8,71.8,60.3,64.3,60.5,57.6,94,71,39,29.80,29.71,6,0,8,0.00
2013-8-21,93.2,76.1,62.6,63.1,57.4,49.7,85,56,27,29.79,29.70,5,0,8,0.00
2013-8-22,93.6,78.6,64.0,61.0,54.5,42.5,77,47,18,29.78,29.67,5,1,8,0.00
2013-8-23,93.6,76.0,64.7,58.8,54.6,47.3,79,51,21,29.73,29.61,7,1,7,0.00
2013-8-24,90.1,72.7,60.1,62.5,56.9,43.6,84,60,32,29.75,29.63,6,1,9,0.00
2013-8-25,92.4,75.8,63.1,61.9,54.4,39.0,77,51,16,29.77,29.70,6,1,10,0.00
2013-8-26,89.1,78.9,70.6,67.0,61.5,51.1,71,56,45,29.78,29.68,4,0,11,0.00
2013-8-27,92.6,78.8,66.6,64.9,59.7,52.6,80,54,36,29.71,29.63,6,1,8,0.00
2013-8-28,95.0,80.8,70.7,64.9,61.3,57.6,72,53,33,29.76,29.63,8,0,9,0.00
2013-8-29,95.6,83.9,72.8,64.0,58.8,54.6,60,44,32,29.80,29.73,8,0,8,0.00
2013-8-30,90.9,83.8,77.6,71.0,67.6,58.6,74,59,47,29.83,29.75,7,1,13,0.00
2013-8-31,91.4,80.7,73.8,72.8,69.7,66.2,82,70,52,29.83,29.74,6,1,9,0.00
2013-9-1,90.5,78.3,70.2,71.5,68.2,65.7,88,73,51,29.79,29.71,4,0,9,0.00
2013-9-2,91.5,77.6,67.2,69.6,66.3,62.9,90,70,44,29.78,29.68,6,0,8,0.00
2013-9-3,95.6,81.9,71.7,66.8,62.1,56.5,78,54,28,29.77,29.69,6,0,8,0.00
2013-9-4,98.3,84.5,73.0,63.7,59.3,54.6,62,44,27,29.76,29.70,6,0,8,0.00
2013-9-5,98.5,85.1,72.1,63.2,57.4,50.4,70,41,22,29.75,29.69,7,0,9,0.00
2013-9-6,99.2,84.3,75.3,63.9,56.8,51.6,56,41,21,29.73,29.65,5,0,7,0.00
2013-9-7,96.4,83.2,72.3,62.1,57.3,50.4,64,43,25,29.72,29.65,8,1,11,0.00
2013-9-8,91.7,77.0,67.7,62.4,55.2,41.5,74,50,20,29.71,29.62,7,1,8,0.00
2013-9-9,83.6,71.6,62.4,62.4,57.1,46.6,83,61,46,29.68,29.61,7,0,10,0.00
2013-9-10,80.0,66.4,58.6,63.2,58.6,55.1,92,78,52,29.82,29.67,7,1,9,0.00
2013-9-11,82.2,67.2,59.8,62.8,58.5,55.6,89,75,49,29.87,29.79,6,1,9,0.00
2013-9-12,89.3,71.8,59.0,62.4,55.2,43.5,87,59,30,29.81,29.70,4,0,8,0.00
2013-9-13,90.7,75.0,61.1,60.1,52.1,38.0,70,46,25,29.71,29.54,5,0,7,0.00
2013-9-14,93.8,76.8,63.5,63.3,56.6,46.9,73,52,30,29.59,29.50,5,0,7,0.00
2013-9-15,94.2,76.9,62.6,64.7,58.1,49.8,84,55,30,29.64,29.56,4,0,7,0.00
2013-9-16,93.2,76.3,63.2,64.1,55.6,46.0,82,52,23,29.67,29.60,4,0,8,0.00
2013-9-17,78.7,65.7,55.1,63.8,57.8,48.4,94,77,55,29.69,29.60,7,1,9,0.00
2013-9-18,76.7,64.5,54.9,60.8,56.2,50.1,92,76,56,29.69,29.63,6,1,10,0.00
2013-9-19,80.9,65.0,56.6,63.2,57.9,51.9,93,79,52,29.71,29.64,7,0,11,0.00
2013-9-20,72.7,64.4,61.1,62.8,59.4,57.5,90,84,70,29.77,29.69,7,1,10,0.00
2013-9-21,77.0,65.9,59.4,60.0,58.0,56.2,90,77,53,29.79,29.68,8,1,11,0.00
2013-9-22,75.5,64.3,57.2,59.2,55.1,50.1,92,73,49,29.73,29.66,7,1,10,0.00
2013-9-23,90.2,72.6,59.0,53.4,47.1,42.1,72,44,19,29.77,29.68,8,0,8,0.00
2013-9-24,88.5,72.9,61.9,53.3,43.4,36.7,59,36,19,29.80,29.72,6,0,9,0.00
2013-9-25,76.0,64.5,56.8,59.8,51.8,39.1,85,64,47,29.73,29.59,8,1,12,0.00
2013-9-26,71.3,62.1,54.8,55.3,50.3,42.2,84,66,46,29.77,29.60,9,1,12,0.00
2013-9-27,83.8,66.0,52.6,53.9,38.7,23.5,72,41,11,29.87,29.75,7,1,13,0.00
2013-9-28,87.6,71.5,60.0,38.3,32.2,25.6,35,24,13,29.92,29.84,7,1,11,0.00
2013-9-29,86.8,71.3,60.6,46.0,33.9,26.2,39,26,12,29.93,29.84,7,0,8,0.00
2013-9-30,85.4,70.2,59.0,54.2,37.6,23.2,53,31,16,29.86,29.74,5,0,9,0.00
2013-10-1,80.0,65.9,58.3,59.2,49.5,36.5,90,58,40,29.81,29.74,6,1,11,0.00
2013-10-2,75.6,63.9,57.6,59.8,56.3,53.2,89,77,54,29.85,29.76,6,1,11,0.00
2013-10-3,70.6,63.5,59.0,59.3,56.3,52.0,89,78,62,29.80,29.71,5,1,10,0.00
2013-10-4,83.5,70.5,56.6,57.8,33.3,13.4,93,41,8,29.91,29.76,18,3,26,0.00
2013-10-5,89.8,77.3,68.7,38.0,18.3,4.4,23,11,4,29.97,29.86,16,2,26,0.00
2013-10-6,92.0,76.6,64.4,30.4,19.7,5.0,21,12,4,29.94,29.82,7,1,10,0.00
2013-10-7,84.9,70.3,58.3,51.0,33.4,18.0,55,27,16,29.84,29.77,7,0,9,0.00
2013-10-8,71.2,60.6,50.9,56.9,49.1,32.2,86,67,37,29.80,29.70,7,1,11,0.00
2013-10-9,59.0,54.4,49.0,53.1,50.0,46.9,94,85,71,29.72,29.61,10,1,13,0.94
2013-10-10,65.9,54.6,45.9,50.2,47.2,43.7,94,78,50,29.91,29.69,5,0,13,0.05
2013-10-11,75.5,60.7,50.0,54.6,49.4,44.8,83,68,42,29.93,29.82,6,0,7,0.00
2013-10-12,75.4,60.8,51.3,58.9,50.4,42.9,88,70,40,29.85,29.77,4,0,9,0.00
2013-10-13,68.8,59.4,51.4,56.0,52.6,48.6,90,79,63,29.90,29.81,7,1,9,0.00
2013-10-14,82.9,66.0,51.3,55.7,47.4,33.9,91,57,24,29.90,29.78,8,1,10,0.00
2013-10-15,83.9,72.3,62.5,38.3,33.8,29.2,37,25,15,29.84,29.75,10,1,15,0.00
2013-10-16,83.6,72.3,61.4,34.0,28.9,21.3,34,21,12,29.92,29.83,14,2,19,0.00
2013-10-17,81.7,67.5,58.2,46.6,33.2,27.6,45,29,16,29.90,29.81,6,1,8,0.00
2013-10-18,83.1,67.9,56.3,54.9,41.5,31.6,58,39,26,29.88,29.80,4,0,7,0.00
2013-10-19,86.5,70.1,60.3,54.1,37.8,26.9,62,31,20,29.89,29.82,7,0,8,0.00
2013-10-20,80.3,64.6,54.3,58.1,43.1,28.2,85,48,29,29.85,29.77,7,0,8,0.00
2013-10-21,78.9,61.3,48.4,56.3,49.5,36.8,92,68,34,29.86,29.78,5,0,8,0.00
2013-10-22,78.0,60.9,50.0,59.2,53.6,45.7,95,79,49,29.87,29.78,4,0,7,0.01
2013-10-23,70.8,59.8,55.4,57.3,53.6,51.6,90,81,61,29.85,29.77,5,0,7,0.00
2013-10-24,70.0,60.5,56.9,56.1,53.7,51.6,86,79,60,29.93,29.83,4,0,7,0.00
2013-10-25,75.8,61.5,52.1,59.0,53.7,43.0,89,77,52,30.00,29.88,4,0,6,0.00
2013-10-26,81.0,65.4,52.8,59.9,50.3,39.0,86,59,37,29.96,29.84,4,0,7,0.00
2013-10-27,75.0,61.7,53.5,58.9,50.9,35.3,89,69,36,29.85,29.70,6,1,10,0.00
2013-10-28,60.4,56.1,52.1,54.5,51.0,47.6,94,83,70,29.82,29.70,8,1,13,0.03
2013-10-29,64.0,54.9,47.8,49.2,46.7,43.4,88,75,52,29.90,29.80,5,1,12,0.00
2013-10-30,69.6,56.5,47.5,53.0,47.2,42.4,87,72,49,29.95,29.87,7,0,8,0.00
2013-10-31,77.6,62.0,51.5,46.0,40.8,34.4,77,48,28,29.97,29.87,6,0,7,0.00
2013-11-1,83.5,67.8,56.0,44.1,35.5,29.5,51,31,18,29.97,29.82,3,0,6,0.00
2013-11-2,79.8,65.3,52.6,53.2,39.6,29.8,86,43,18,29.87,29.75,7,1,11,0.00
2013-11-3,67.4,58.3,50.2,54.5,49.4,38.9,87,73,57,29.80,29.71,10,1,10,0.00
2013-11-4,61.6,56.1,49.7,52.0,49.1,45.4,85,78,68,29.83,29.67,4,0,8,0.00
2013-11-5,73.4,61.3,48.9,49.2,27.3,6.9,94,40,10,30.01,29.83,10,2,17,0.01
2013-11-6,80.9,67.7,55.2,35.5,18.3,5.6,32,16,8,30.07,29.96,5,1,11,0.00
2013-11-7,83.9,69.8,60.4,35.8,21.5,11.5,31,17,8,29.99,29.87,5,0,7,0.00
2013-11-8,78.5,64.9,55.8,42.0,30.3,19.6,47,29,14,29.91,29.81,7,0,9,0.00
2013-11-9,77.1,61.9,52.1,39.1,29.9,17.2,55,31,18,29.96,29.86,5,0,9,0.00
2013-11-10,81.1,64.5,55.5,39.2,25.0,10.6,46,25,9,30.01,29.90,5,0,8,0.00
2013-11-11,78.2,63.7,54.6,49.9,39.0,26.8,68,42,26,30.00,29.90,5,0,6,0.00
2013-11-12,78.4,68.3,56.0,53.0,39.9,32.3,57,36,27,30.04,29.93,2,0,3,0.00
2013-11-13,89.5,77.3,67.2,45.5,35.4,23.5,34,23,13,29.93,29.76,7,0,11,0.00
2013-11-14,88.0,74.4,60.0,39.2,32.4,25.2,42,23,12,29.79,29.63,7,0,9,0.00
2013-11-15,63.3,57.8,52.3,54.3,50.6,36.2,88,77,41,29.64,29.56,5,0,9,0.00
2013-11-16,61.2,55.8,52.4,52.6,48.7,44.5,93,78,58,29.83,29.64,6,0,7,0.02
2013-11-17,66.4,56.9,49.2,52.4,49.0,44.7,89,76,56,29.98,29.83,6,0,8,0.00
2013-11-18,67.0,56.5,48.5,54.3,50.4,45.6,91,81,63,30.04,29.93,6,0,8,0.00
2013-11-19,62.0,56.7,52.5,53.1,51.3,49.2,91,83,70,29.97,29.83,5,0,7,0.00
2013-11-20,62.6,57.0,52.3,53.9,52.0,49.3,93,83,66,29.87,29.77,10,0,10,0.04
2013-11-21,57.5,55.5,50.2,56.4,54.1,48.5,96,95,93,29.77,29.73,6,0,11,1.51
2013-11-22,55.5,52.0,49.0,48.8,43.6,39.4,94,73,61,29.84,29.70,13,2,19,0.10
2013-11-23,65.1,54.5,47.4,46.5,42.2,39.9,76,64,42,29.97,29.83,7,1,11,0.00
2013-11-24,65.3,53.3,47.6,49.8,43.2,38.8,79,69,47,30.07,29.96,5,0,10,0.00
2013-11-25,70.0,56.8,47.3,47.7,42.8,38.5,77,61,39,30.12,30.04,4,0,8,0.00
2013-11-26,75.8,64.1,51.6,46.5,37.1,31.3,61,38,20,30.07,29.90,10,1,17,0.00
2013-11-27,72.6,64.1,53.6,45.7,38.4,32.0,61,40,27,29.91,29.75,12,1,15,0.00
2013-11-28,67.4,57.9,50.9,48.0,41.0,34.5,69,54,39,29.94,29.75,9,0,12,0.00
2013-11-29,60.8,55.5,52.4,56.5,50.1,43.7,91,82,67,30.06,29.93,4,0,6,0.10
2013-11-30,72.7,60.1,52.1,51.0,47.7,40.8,79,65,40,30.06,29.96,5,0,7,0.00
2013-12-1,80.0,66.9,55.6,43.0,34.5,21.6,58,32,14,30.08,29.97,5,0,13,0.00
2013-12-2,74.6,62.3,53.9,46.0,33.8,22.0,49,35,21,29.99,29.79,4,0,7,0.00
2013-12-3,62.4,55.4,49.5,52.1,44.3,31.3,90,68,43,29.79,29.65,8,1,11,0.00
2013-12-4,59.3,49.9,43.4,44.9,39.4,35.2,84,68,48,29.86,29.67,9,1,11,0.00
2013-12-5,57.6,48.1,42.6,40.3,37.6,34.3,80,68,42,29.99,29.83,6,1,9,0.00
2013-12-6,57.0,48.1,42.6,41.8,38.5,36.0,80,69,54,30.07,29.99,7,0,12,0.00
2013-12-7,51.6,46.7,42.8,49.5,41.2,36.8,94,81,70,30.01,29.90,8,0,12,0.19
2013-12-8,53.7,44.7,38.7,40.3,35.9,18.5,88,73,34,30.08,29.99,8,0,16,0.00
2013-12-9,58.7,49.2,40.7,21.5,9.7,-4.3,46,21,10,30.16,30.05,11,2,21,0.00
2013-12-10,67.0,51.5,40.6,31.4,18.6,2.7,52,28,16,30.13,29.98,5,0,8,0.00
2013-12-11,70.7,57.0,47.9,36.0,23.3,15.2,42,28,15,30.04,29.97,5,0,7,0.00
2013-12-12,67.5,53.7,46.1,45.2,30.6,19.7,68,44,19,30.09,30.01,5,0,9,0.00
2013-12-13,64.7,51.2,42.8,45.7,36.9,28.0,86,60,35,30.11,30.01,4,0,7,0.00
2013-12-14,74.7,63.3,46.8,43.7,25.1,13.7,88,26,12,30.17,30.05,14,2,23,0.00
2013-12-15,82.6,68.3,55.3,35.2,22.6,13.5,27,18,10,30.10,29.94,11,1,15,0.00
2013-12-16,84.8,69.5,62.0,40.8,29.2,22.1,30,22,13,30.00,29.92,5,0,9,0.00
2013-12-17,79.9,68.2,60.2,46.1,36.3,27.9,50,31,19,29.99,29.86,3,0,7,0.00
2013-12-18,69.9,60.4,52.0,52.2,43.7,33.7,91,57,33,29.89,29.72,6,1,10,0.00
2013-12-19,52.1,48.2,41.9,48.5,45.1,39.5,93,89,82,29.75,29.60,3,0,10,0.37
2013-12-20,58.3,48.4,41.6,48.4,43.2,38.7,93,83,67,29.85,29.65,6,0,8,0.01
2013-12-21,57.9,47.5,43.3,48.1,42.1,38.2,91,82,65,29.98,29.81,5,0,7,0.00
2013-12-22,68.9,54.5,44.1,49.8,42.7,34.2,90,67,39,30.14,29.97,4,0,6,0.00
2013-12-23,75.0,62.7,52.7,39.4,35.3,32.6,54,37,23,30.18,30.06,12,1,16,0.00
2013-12-24,76.3,65.2,54.5,43.3,36.8,29.5,54,36,23,30.07,29.96,13,1,23,0.00
2013-12-25,77.9,69.6,61.0,31.4,21.0,7.7,28,16,9,30.05,29.96,21,3,23,0.00
2013-12-26,76.8,67.7,57.9,21.3,10.6,3.5,21,11,7,30.03,29.93,11,2,16,0.00
2013-12-27,81.9,66.6,57.2,28.3,17.3,1.9,24,16,8,30.02,29.92,5,0,7,0.00
2013-12-28,73.4,60.3,48.4,45.6,27.0,16.8,60,30,12,29.92,29.80,6,0,9,0.00
2013-12-29,72.3,63.1,48.3,31.1,12.8,2.4,50,16,7,30.03,29.87,13,2,22,0.00
2013-12-30,73.1,59.4,51.7,28.4,17.6,5.9,32,20,13,30.14,30.02,4,0,7,0.00
2013-12-31,71.3,56.5,50.8,43.5,26.3,10.9,55,34,16,30.07,29.96,4,0,6,0.00
2014-1-1,72.5,59.9,47.7,42.3,31.7,23.2,53,35,22,30.01,29.92,5,0,6,0.00
2014-1-2,78.0,63.1,56.8,36.2,29.3,23.3,38,29,15,29.98,29.88,4,0,7,0.00